createdAt,value
2023-05-01T04:27:52.203Z,17.39
2023-05-01T06:30:36.118Z,17.65
2023-05-01T06:48:13.997Z,17.79
2023-05-01T06:50:05.489Z,17.99
2023-05-01T06:59:47.180Z,18.00
2023-05-01T07:02:16.480Z,18.01
2023-05-01T08:10:27.615Z,20.22
2023-05-01T08:12:55.588Z,20.19
2023-05-01T08:15:27.801Z,20.34
2023-05-01T08:21:32.064Z,20.55
2023-05-01T09:56:05.527Z,24.96
2023-05-01T10:12:40.509Z,25.82
2023-05-01T10:19:34.158Z,26.32
2023-05-01T10:22:29.711Z,26.51
2023-05-01T15:51:42.337Z,30.96
2023-05-01T15:54:11.145Z,30.94
2023-05-01T15:56:38.963Z,30.87
2023-05-01T15:59:08.591Z,30.83
2023-05-01T16:01:36.600Z,30.68
2023-05-01T16:04:05.065Z,30.54
2023-05-01T16:06:55.034Z,30.50
2023-05-01T16:09:24.682Z,30.42
2023-05-01T16:11:52.233Z,30.40
2023-05-01T16:14:20.187Z,30.43
2023-05-01T16:16:48.141Z,30.50
2023-05-01T16:19:18.108Z,30.66
2023-05-01T16:21:45.684Z,30.52
2023-05-01T16:24:13.407Z,30.44
2023-05-01T16:26:42.106Z,30.34
2023-05-01T16:29:10.441Z,30.36
2023-05-01T16:31:38.002Z,30.32
2023-05-01T16:34:11.417Z,30.21
2023-05-01T16:36:43.609Z,30.09
2023-05-01T16:39:17.053Z,29.94
2023-05-01T16:41:46.972Z,29.84
2023-05-01T16:44:15.019Z,29.72
2023-05-01T16:46:44.134Z,29.55
2023-05-01T16:49:12.173Z,29.55
2023-05-01T16:51:44.565Z,29.58
2023-05-01T16:54:12.613Z,29.58
2023-05-01T16:56:40.551Z,29.48
2023-05-01T16:59:09.066Z,29.35
2023-05-01T17:01:37.124Z,29.21
2023-05-01T17:04:05.181Z,29.22
2023-05-01T17:06:35.523Z,29.21
2023-05-01T17:13:01.647Z,28.98
2023-05-01T17:15:29.816Z,28.85
2023-05-01T17:17:57.530Z,28.78
2023-05-01T17:20:25.350Z,28.52
2023-05-01T17:22:53.145Z,28.44
2023-05-01T17:25:21.593Z,28.33
2023-05-01T17:27:49.646Z,28.27
2023-05-01T17:30:19.548Z,28.12
2023-05-01T17:32:47.286Z,28.11
2023-05-01T17:35:16.181Z,27.95
2023-05-01T17:37:44.149Z,27.76
2023-05-01T17:40:12.496Z,27.64
2023-05-01T17:42:40.448Z,27.51
2023-05-01T17:45:10.828Z,27.40
2023-05-01T17:51:46.111Z,27.16
2023-05-01T17:57:56.569Z,26.88
2023-05-01T18:00:25.642Z,26.88
2023-05-01T18:02:54.688Z,26.78
2023-05-01T18:05:23.692Z,26.65
2023-05-01T18:07:53.283Z,26.50
2023-05-01T18:10:21.317Z,26.30
2023-05-01T18:12:50.827Z,26.20
2023-05-01T18:15:22.498Z,26.01
2023-05-01T18:17:51.038Z,25.95
2023-05-01T18:31:11.465Z,25.39
2023-05-01T18:33:54.126Z,25.22
2023-05-01T18:36:24.775Z,25.06
2023-05-01T18:38:59.409Z,24.94
2023-05-01T18:41:27.260Z,24.87
2023-05-01T18:43:57.849Z,24.81
2023-05-01T18:46:26.657Z,24.69
2023-05-01T18:48:54.551Z,24.68
2023-05-01T18:51:22.410Z,24.58
2023-05-01T18:53:50.457Z,24.47
2023-05-01T18:56:18.395Z,24.35
2023-05-01T18:58:46.727Z,24.26
2023-05-01T19:01:14.631Z,24.21
2023-05-01T19:03:42.482Z,24.11
2023-05-01T19:14:06.361Z,23.69
2023-05-01T19:16:34.578Z,23.60
2023-05-01T19:38:20.029Z,23.14
2023-05-01T19:45:17.948Z,23.08
2023-05-01T19:47:46.551Z,23.02
2023-05-01T19:50:19.190Z,22.96
2023-05-01T19:52:54.087Z,22.94
2023-05-01T19:55:31.397Z,22.85
2023-05-01T19:58:00.654Z,22.83
2023-05-01T20:00:28.600Z,22.77
2023-05-01T20:02:57.473Z,22.72
2023-05-01T20:20:30.805Z,22.45
2023-05-01T20:23:19.622Z,22.47
2023-05-01T20:29:36.208Z,22.31
2023-05-01T20:32:05.115Z,22.38
2023-05-01T20:35:33.184Z,22.39
2023-05-01T20:41:45.853Z,22.29
2023-05-01T20:44:14.838Z,22.26
2023-05-01T20:46:52.711Z,22.23
2023-05-01T20:50:06.666Z,22.22
2023-05-01T20:52:36.457Z,22.09
2023-05-01T20:55:04.667Z,22.14
2023-05-01T20:57:36.847Z,22.01
2023-05-01T21:15:34.900Z,21.67
2023-05-01T21:18:04.023Z,21.63
2023-05-01T21:20:36.058Z,21.53
2023-05-01T21:23:03.818Z,21.55
2023-05-01T21:25:32.343Z,21.53
2023-05-01T21:28:04.033Z,21.52
2023-05-01T21:30:33.960Z,21.49
2023-05-01T21:33:02.648Z,21.44
2023-05-01T21:35:33.793Z,21.47
2023-05-01T21:40:46.798Z,21.46
2023-05-01T21:43:14.303Z,21.42
2023-05-01T21:45:44.919Z,21.49
2023-05-01T21:48:23.796Z,21.45
2023-05-01T22:33:48.947Z,21.45
2023-05-01T22:36:19.719Z,21.38
2023-05-01T22:46:23.926Z,21.37
2023-05-01T22:48:51.400Z,21.35
2023-05-01T22:51:21.530Z,21.31
2023-05-01T22:53:49.020Z,21.28
2023-05-01T22:56:17.806Z,21.16
2023-05-01T22:58:47.740Z,21.12
2023-05-01T23:01:15.523Z,21.02
2023-05-01T23:03:43.440Z,20.94
2023-05-01T23:06:12.340Z,20.73
2023-05-01T23:08:40.054Z,20.65
2023-05-01T23:11:08.146Z,20.59
2023-05-01T23:13:35.745Z,20.44
2023-05-01T23:16:03.336Z,20.40
2023-05-01T23:18:33.401Z,20.34
2023-05-01T23:21:01.115Z,20.23
2023-05-01T23:23:30.096Z,20.16
2023-05-01T23:25:57.537Z,20.09
2023-05-01T23:28:26.334Z,20.04
2023-05-01T23:31:04.091Z,19.94
2023-05-01T23:33:38.755Z,19.90
2023-05-01T23:36:13.514Z,19.87
2023-05-01T23:38:42.512Z,19.82
2023-05-01T23:41:10.199Z,19.76
2023-05-01T23:43:38.566Z,19.71
2023-05-01T23:46:08.359Z,19.69
2023-05-01T23:48:37.204Z,19.67
2023-05-01T23:51:05.073Z,19.55
2023-05-01T23:53:34.623Z,19.56
2023-05-01T23:56:03.052Z,19.55
2023-05-01T23:58:31.231Z,19.49
